createdAt,value
2022-12-29T00:01:10.329Z,99856.36
2022-12-29T00:03:38.254Z,99850.30
2022-12-29T00:06:06.700Z,99849.14
2022-12-29T00:08:41.272Z,99850.90
2022-12-29T00:11:14.836Z,99842.45
2022-12-29T00:14:01.790Z,99846.59
2022-12-29T00:16:30.762Z,99846.32
2022-12-29T00:18:59.413Z,99834.31
2022-12-29T00:21:46.991Z,99832.95
2022-12-29T00:24:26.610Z,99829.40
2022-12-29T00:27:18.449Z,99831.27
2022-12-29T00:30:05.130Z,99831.17
2022-12-29T00:33:05.576Z,99822.65
2022-12-29T00:35:38.732Z,99819.33
2022-12-29T00:38:27.328Z,99814.86
2022-12-29T00:41:13.965Z,99807.72
2022-12-29T00:44:00.618Z,99809.15
2022-12-29T00:46:28.904Z,99798.48
2022-12-29T00:49:16.006Z,99800.52
2022-12-29T00:51:46.432Z,99803.45
2022-12-29T00:54:15.445Z,99796.83
2022-12-29T00:56:43.416Z,99793.34
2022-12-29T00:59:12.590Z,99795.79
2022-12-29T01:01:40.815Z,99797.61
2022-12-29T01:04:09.565Z,99795.45
2022-12-29T01:06:39.512Z,99795.56
2022-12-29T01:09:26.699Z,99791.88
2022-12-29T01:11:54.669Z,99787.94
2022-12-29T01:14:23.719Z,99792.42
2022-12-29T01:16:52.022Z,99785.17
2022-12-29T01:19:20.569Z,99785.45
2022-12-29T01:21:48.750Z,99781.25
2022-12-29T01:24:17.595Z,99779.81
2022-12-29T01:26:46.424Z,99784.95
2022-12-29T01:29:14.368Z,99785.34
2022-12-29T01:31:42.229Z,99785.30
2022-12-29T01:34:10.446Z,99773.91
2022-12-29T01:36:39.607Z,99779.92
2022-12-29T01:39:07.733Z,99775.16
2022-12-29T01:41:35.603Z,99774.06
2022-12-29T01:44:03.644Z,99776.77
2022-12-29T01:46:37.771Z,99773.84
2022-12-29T01:49:08.364Z,99764.29
2022-12-29T01:51:39.909Z,99757.50
2022-12-29T01:54:11.281Z,99757.78
2022-12-29T01:56:39.395Z,99753.05
2022-12-29T01:59:12.335Z,99749.79
2022-12-29T02:01:40.263Z,99745.27
2022-12-29T02:04:11.914Z,99741.77
2022-12-29T02:06:47.295Z,99741.88
2022-12-29T02:09:16.271Z,99742.27
2022-12-29T02:11:46.488Z,99735.32
2022-12-29T02:14:15.392Z,99735.20
2022-12-29T02:17:07.934Z,99732.62
2022-12-29T02:19:42.795Z,99731.62
2022-12-29T02:22:37.489Z,99729.52
2022-12-29T02:25:26.681Z,99726.33
2022-12-29T02:28:10.248Z,99716.55
2022-12-29T02:30:53.961Z,99715.99
2022-12-29T02:33:29.669Z,99716.94
2022-12-29T02:36:10.865Z,99716.10
2022-12-29T02:38:53.930Z,99712.63
2022-12-29T02:41:33.014Z,99708.59
2022-12-29T02:44:19.476Z,99701.95
2022-12-29T02:47:08.141Z,99698.52
2022-12-29T02:50:08.164Z,99693.44
2022-12-29T02:52:40.510Z,99699.80
2022-12-29T02:55:08.488Z,99699.35
2022-12-29T02:57:36.608Z,99704.88
2022-12-29T03:00:16.660Z,99701.06
2022-12-29T03:02:49.093Z,99695.76
2022-12-29T03:05:45.127Z,99701.10
2022-12-29T03:08:29.795Z,99705.41
2022-12-29T03:11:27.930Z,99703.58
2022-12-29T03:14:21.735Z,99707.73
2022-12-29T03:16:55.262Z,99707.17
2022-12-29T03:19:29.481Z,99705.08
2022-12-29T03:22:23.891Z,99706.56
2022-12-29T03:24:59.781Z,99705.51
2022-12-29T03:27:32.701Z,99701.30
2022-12-29T03:30:06.114Z,99702.79
2022-12-29T03:36:59.912Z,99691.11
2022-12-29T03:39:29.801Z,99691.16
2022-12-29T03:42:03.835Z,99685.79
2022-12-29T03:44:41.098Z,99688.71
2022-12-29T03:47:11.493Z,99682.23
2022-12-29T03:49:39.813Z,99679.63
2022-12-29T03:52:09.530Z,99669.33
2022-12-29T03:54:41.744Z,99671.98
2022-12-29T03:57:11.394Z,99671.52
2022-12-29T03:59:59.427Z,99663.22
2022-12-29T04:02:27.261Z,99659.39
2022-12-29T04:04:55.710Z,99658.21
2022-12-29T04:07:24.583Z,99652.34
2022-12-29T04:09:54.606Z,99650.79
2022-12-29T04:12:25.149Z,99648.68
2022-12-29T04:14:53.025Z,99649.31
2022-12-29T04:17:21.252Z,99657.16
2022-12-29T04:19:52.027Z,99661.02
2022-12-29T04:22:20.763Z,99661.21
2022-12-29T04:24:48.475Z,99661.75
2022-12-29T04:27:16.428Z,99665.02
2022-12-29T04:30:15.902Z,99662.58
2022-12-29T04:32:59.406Z,99654.95
2022-12-29T04:35:27.431Z,99652.23
2022-12-29T04:37:55.298Z,99652.17
2022-12-29T04:40:24.373Z,99647.33
2022-12-29T04:42:52.240Z,99643.49
2022-12-29T04:45:21.178Z,99638.39
2022-12-29T04:47:53.864Z,99638.89
2022-12-29T04:50:42.586Z,99637.95
2022-12-29T04:53:20.949Z,99644.85
2022-12-29T04:55:52.591Z,99641.80
2022-12-29T04:58:23.389Z,99634.50
2022-12-29T05:00:53.378Z,99632.05
2022-12-29T05:03:24.123Z,99630.61
2022-12-29T05:05:55.198Z,99631.89
2022-12-29T05:08:27.974Z,99630.11
2022-12-29T05:10:58.757Z,99631.52
2022-12-29T05:13:26.668Z,99630.61
2022-12-29T05:15:55.259Z,99627.11
2022-12-29T05:18:25.098Z,99628.88
2022-12-29T05:20:52.915Z,99620.20
2022-12-29T05:23:22.371Z,99619.65
2022-12-29T05:25:56.793Z,99607.98
2022-12-29T05:28:37.672Z,99607.92
2022-12-29T05:31:12.413Z,99609.13
2022-12-29T05:33:40.704Z,99613.12
2022-12-29T05:36:10.139Z,99608.36
2022-12-29T05:38:41.832Z,99603.02
2022-12-29T05:41:10.010Z,99607.42
2022-12-29T05:43:56.491Z,99608.14
2022-12-29T05:46:30.566Z,99613.95
2022-12-29T05:49:24.970Z,99613.84
2022-12-29T05:52:18.807Z,99614.34
2022-12-29T05:54:47.585Z,99614.25
2022-12-29T05:57:18.566Z,99615.85
2022-12-29T05:59:51.339Z,99613.57
2022-12-29T06:02:19.260Z,99614.62
2022-12-29T06:04:47.144Z,99611.24
2022-12-29T06:07:14.963Z,99611.41
2022-12-29T06:09:45.186Z,99611.40
2022-12-29T06:12:13.693Z,99613.91
2022-12-29T06:14:43.800Z,99610.48
2022-12-29T06:17:12.405Z,99600.39
2022-12-29T06:19:41.084Z,99598.41
2022-12-29T06:22:08.963Z,99602.79
2022-12-29T06:24:37.338Z,99608.67
2022-12-29T06:27:05.223Z,99613.89
2022-12-29T06:29:33.345Z,99613.52
2022-12-29T06:32:01.228Z,99615.17
2022-12-29T06:34:30.147Z,99614.23
2022-12-29T06:36:58.019Z,99609.63
2022-12-29T06:39:25.769Z,99613.36
2022-12-29T06:42:06.748Z,99609.57
2022-12-29T06:44:58.506Z,99613.20
2022-12-29T06:47:26.339Z,99607.96
2022-12-29T06:49:54.091Z,99608.11
2022-12-29T06:52:21.920Z,99611.47
2022-12-29T06:54:49.674Z,99616.42
2022-12-29T06:57:17.512Z,99621.20
2022-12-29T06:59:45.256Z,99618.48
2022-12-29T07:02:15.666Z,99616.64
2022-12-29T07:04:44.166Z,99616.70
2022-12-29T07:07:11.928Z,99623.46
2022-12-29T07:09:39.722Z,99620.21
2022-12-29T07:12:07.691Z,99621.04
2022-12-29T07:14:42.354Z,99624.40
2022-12-29T07:17:11.369Z,99628.36
2022-12-29T07:19:39.469Z,99619.20
2022-12-29T07:22:07.345Z,99621.73
2022-12-29T07:24:38.582Z,99626.10
2022-12-29T07:27:06.380Z,99620.80
2022-12-29T07:29:34.361Z,99613.42
2022-12-29T07:32:02.178Z,99614.36
2022-12-29T07:34:30.248Z,99607.80
2022-12-29T07:36:58.125Z,99618.30
2022-12-29T07:39:26.308Z,99625.89
2022-12-29T07:41:56.171Z,99617.77
2022-12-29T07:44:27.710Z,99611.98
2022-12-29T07:47:00.489Z,99615.80
2022-12-29T07:49:28.407Z,99613.70
2022-12-29T07:51:56.178Z,99614.56
2022-12-29T07:54:24.709Z,99622.08
2022-12-29T07:56:52.533Z,99621.45
2022-12-29T07:59:20.484Z,99616.67
2022-12-29T08:01:48.424Z,99619.63
2022-12-29T08:04:16.369Z,99625.54
2022-12-29T08:06:46.510Z,99624.76
2022-12-29T08:09:21.709Z,99623.52
2022-12-29T08:11:50.084Z,99629.63
2022-12-29T08:14:18.124Z,99626.72
2022-12-29T08:16:46.079Z,99626.08
2022-12-29T08:19:14.463Z,99623.27
2022-12-29T08:21:42.428Z,99614.22
2022-12-29T08:24:10.245Z,99611.10
2022-12-29T08:26:37.995Z,99607.90
2022-12-29T08:29:05.799Z,99605.31
2022-12-29T08:31:33.589Z,99607.62
2022-12-29T08:34:02.459Z,99608.64
2022-12-29T08:36:31.489Z,99611.11
2022-12-29T08:38:59.341Z,99617.67
2022-12-29T08:41:27.230Z,99617.61
2022-12-29T08:43:55.522Z,99620.02
2022-12-29T08:46:23.369Z,99626.09
2022-12-29T08:48:51.667Z,99632.27
2022-12-29T08:51:24.452Z,99626.82
2022-12-29T08:53:53.180Z,99628.75
2022-12-29T08:56:21.259Z,99622.36
2022-12-29T08:58:53.104Z,99625.58
2022-12-29T09:01:22.511Z,99622.56
2022-12-29T09:06:40.438Z,99636.44
2022-12-29T09:09:08.552Z,99643.69
2022-12-29T09:11:36.452Z,99641.56
2022-12-29T09:14:04.785Z,99641.55
2022-12-29T09:16:33.207Z,99638.63
2022-12-29T09:19:02.855Z,99638.88
2022-12-29T09:21:30.681Z,99634.18
2022-12-29T09:23:58.627Z,99635.60
2022-12-29T09:26:26.410Z,99634.60
2022-12-29T09:28:54.625Z,99631.93
2022-12-29T09:31:23.301Z,99630.53
2022-12-29T09:33:51.258Z,99629.55
2022-12-29T09:36:18.970Z,99622.95
2022-12-29T09:38:47.049Z,99619.11
2022-12-29T09:41:16.380Z,99619.05
2022-12-29T09:43:53.802Z,99617.67
2022-12-29T09:46:38.331Z,99618.70
2022-12-29T09:49:27.452Z,99612.23
2022-12-29T09:51:57.687Z,99616.27
2022-12-29T09:54:37.835Z,99611.00
2022-12-29T09:57:14.312Z,99613.17
2022-12-29T09:59:43.663Z,99615.99
2022-12-29T10:02:30.785Z,99615.23
2022-12-29T10:04:59.210Z,99613.95
2022-12-29T10:07:30.774Z,99616.39
2022-12-29T10:10:24.219Z,99614.88
2022-12-29T10:13:01.249Z,99611.77
2022-12-29T10:16:06.405Z,99612.53
2022-12-29T10:19:12.201Z,99611.58
2022-12-29T10:22:10.688Z,99606.77
2022-12-29T10:24:39.766Z,99597.29
2022-12-29T10:27:14.584Z,99591.92
2022-12-29T10:29:47.428Z,99592.48
2022-12-29T10:32:38.960Z,99588.47
2022-12-29T10:35:14.132Z,99585.27
2022-12-29T10:37:51.643Z,99588.05
2022-12-29T10:40:27.295Z,99589.96
2022-12-29T10:42:56.796Z,99588.59
2022-12-29T10:45:28.487Z,99582.27
2022-12-29T10:48:01.292Z,99585.04
2022-12-29T10:50:30.735Z,99579.13
2022-12-29T10:53:02.706Z,99583.67
2022-12-29T10:55:34.677Z,99579.90
2022-12-29T10:58:05.836Z,99577.94
2022-12-29T11:00:34.095Z,99580.05
2022-12-29T11:03:16.843Z,99579.23
2022-12-29T11:05:53.471Z,99578.85
2022-12-29T11:08:25.669Z,99578.81
2022-12-29T11:11:02.407Z,99572.26
2022-12-29T11:13:38.615Z,99568.23
2022-12-29T11:20:44.927Z,99561.98
2022-12-29T11:23:45.626Z,99556.16
2022-12-29T11:26:22.003Z,99559.41
2022-12-29T11:29:08.590Z,99551.90
2022-12-29T11:31:43.416Z,99546.55
2022-12-29T11:34:18.743Z,99533.91
2022-12-29T11:36:47.469Z,99530.58
2022-12-29T11:39:34.620Z,99529.39
2022-12-29T11:42:03.744Z,99535.73
2022-12-29T11:44:38.024Z,99534.45
2022-12-29T11:47:06.549Z,99540.14
2022-12-29T11:49:34.548Z,99532.95
2022-12-29T11:52:02.374Z,99537.52
2022-12-29T11:54:36.113Z,99540.91
2022-12-29T11:57:15.921Z,99545.15
2022-12-29T11:59:50.869Z,99541.61
2022-12-29T12:02:21.629Z,99550.09
2022-12-29T12:04:52.727Z,99545.91
2022-12-29T12:07:25.580Z,99550.98
2022-12-29T12:10:04.861Z,99553.34
2022-12-29T12:12:56.363Z,99542.98
2022-12-29T12:15:30.675Z,99530.20
2022-12-29T12:18:04.743Z,99523.11
2022-12-29T12:21:05.792Z,99533.60
2022-12-29T12:23:43.409Z,99530.45
2022-12-29T12:26:19.392Z,99525.77
2022-12-29T12:28:51.172Z,99522.71
2022-12-29T12:31:38.150Z,99515.19
2022-12-29T12:34:12.699Z,99506.81
2022-12-29T12:36:49.824Z,99509.86
2022-12-29T12:39:32.640Z,99510.81
2022-12-29T12:42:03.176Z,99508.88
2022-12-29T12:44:36.732Z,99501.27
2022-12-29T12:47:10.518Z,99502.90
2022-12-29T12:49:56.848Z,99506.66
2022-12-29T12:52:35.434Z,99505.78
2022-12-29T12:55:07.639Z,99505.77
2022-12-29T12:58:16.808Z,99506.95
2022-12-29T13:00:59.722Z,99511.29
2022-12-29T13:03:39.294Z,99515.60
2022-12-29T13:06:35.321Z,99513.70
2022-12-29T13:09:30.869Z,99518.52
2022-12-29T13:12:04.903Z,99522.48
2022-12-29T13:14:51.250Z,99519.91
2022-12-29T13:17:31.571Z,99518.08
2022-12-29T13:20:21.568Z,99516.20
2022-12-29T13:23:18.566Z,99522.98
2022-12-29T13:25:54.076Z,99526.21
2022-12-29T13:28:32.982Z,99529.51
2022-12-29T13:31:13.093Z,99536.55
2022-12-29T13:34:08.720Z,99540.89
2022-12-29T13:36:44.420Z,99536.22
2022-12-29T13:39:21.139Z,99539.77
2022-12-29T13:41:57.186Z,99544.95
2022-12-29T13:44:36.096Z,99553.02
2022-12-29T13:47:38.020Z,99546.55
2022-12-29T13:50:13.706Z,99551.66
2022-12-29T13:53:02.963Z,99551.87
2022-12-29T13:56:05.791Z,99555.14
2022-12-29T13:58:55.749Z,99561.45
2022-12-29T14:01:33.321Z,99556.38
2022-12-29T14:04:04.973Z,99558.48
2022-12-29T14:06:41.531Z,99560.39
2022-12-29T14:09:41.948Z,99558.17
2022-12-29T14:12:40.091Z,99550.01
2022-12-29T14:15:10.938Z,99546.28
2022-12-29T14:17:45.357Z,99545.00
2022-12-29T14:20:23.756Z,99547.91
2022-12-29T14:23:25.678Z,99547.71
2022-12-29T14:26:05.692Z,99549.60
2022-12-29T14:28:49.116Z,99546.31
2022-12-29T14:31:20.057Z,99548.40
2022-12-29T14:34:06.561Z,99544.49
2022-12-29T14:36:36.570Z,99546.01
2022-12-29T14:39:05.329Z,99540.06
2022-12-29T14:41:42.405Z,99545.28
2022-12-29T14:44:19.658Z,99544.64
2022-12-29T14:46:57.180Z,99546.50
2022-12-29T14:49:33.690Z,99545.59
2022-12-29T14:52:28.237Z,99547.27
2022-12-29T14:55:19.480Z,99553.51
2022-12-29T14:58:21.826Z,99550.59
2022-12-29T15:00:50.164Z,99551.23
2022-12-29T15:03:20.896Z,99553.14
2022-12-29T15:05:57.080Z,99560.91
2022-12-29T15:08:33.125Z,99562.03
2022-12-29T15:11:13.219Z,99559.00
2022-12-29T15:13:44.117Z,99563.96
2022-12-29T15:16:32.228Z,99562.68
2022-12-29T15:19:01.170Z,99566.07
2022-12-29T15:21:34.178Z,99568.91
2022-12-29T15:24:02.057Z,99568.06
2022-12-29T15:26:45.438Z,99577.59
2022-12-29T15:29:31.392Z,99575.33
2022-12-29T15:32:18.736Z,99577.08
2022-12-29T15:34:49.099Z,99580.41
2022-12-29T15:37:25.816Z,99576.31
2022-12-29T15:39:55.512Z,99585.77
2022-12-29T15:42:33.451Z,99582.06
2022-12-29T15:45:10.693Z,99585.38
2022-12-29T15:47:39.799Z,99586.16
2022-12-29T15:50:15.750Z,99589.65
2022-12-29T15:52:43.475Z,99591.52
2022-12-29T15:55:21.929Z,99590.95
2022-12-29T15:57:49.861Z,99584.73
2022-12-29T16:00:35.724Z,99582.55
2022-12-29T16:03:05.548Z,99580.74
2022-12-29T16:05:35.882Z,99580.17
2022-12-29T16:08:05.152Z,99580.30
2022-12-29T16:10:37.646Z,99581.91
2022-12-29T16:13:26.892Z,99586.28
2022-12-29T16:15:59.321Z,99595.83
2022-12-29T16:18:35.284Z,99597.66
2022-12-29T16:21:07.350Z,99594.80
2022-12-29T16:23:37.599Z,99599.95
2022-12-29T16:26:17.443Z,99601.52
2022-12-29T16:28:48.745Z,99596.27
2022-12-29T16:31:24.228Z,99595.86
2022-12-29T16:33:54.263Z,99600.08
2022-12-29T16:36:33.878Z,99599.36
2022-12-29T16:39:47.197Z,99599.89
2022-12-29T16:42:34.516Z,99598.21
2022-12-29T16:45:21.078Z,99596.62
2022-12-29T16:48:01.375Z,99597.98
2022-12-29T16:50:29.400Z,99604.61
2022-12-29T16:52:57.331Z,99605.84
2022-12-29T16:55:25.286Z,99606.41
2022-12-29T16:57:57.274Z,99608.10
2022-12-29T17:00:27.854Z,99612.89
2022-12-29T17:02:59.440Z,99618.09
2022-12-29T17:05:27.730Z,99615.97
2022-12-29T17:07:58.506Z,99618.70
2022-12-29T17:10:46.481Z,99619.92
2022-12-29T17:13:14.373Z,99614.65
2022-12-29T17:15:42.496Z,99617.10
2022-12-29T17:18:13.837Z,99619.40
2022-12-29T17:20:42.547Z,99617.89
2022-12-29T17:23:19.909Z,99621.44
2022-12-29T17:25:54.037Z,99620.61
2022-12-29T17:28:27.715Z,99624.10
2022-12-29T17:31:02.467Z,99625.06
2022-12-29T17:33:36.117Z,99624.20
2022-12-29T17:36:11.779Z,99632.48
2022-12-29T17:38:39.976Z,99633.17
2022-12-29T17:41:14.493Z,99632.95
2022-12-29T17:43:42.442Z,99632.72
2022-12-29T17:46:10.476Z,99636.17
2022-12-29T17:48:38.336Z,99635.77
2022-12-29T17:51:06.491Z,99640.97
2022-12-29T17:53:34.309Z,99640.86
2022-12-29T17:56:02.028Z,99644.08
2022-12-29T17:58:31.817Z,99648.34
2022-12-29T18:01:01.601Z,99651.41
2022-12-29T18:03:32.184Z,99654.52
2022-12-29T18:06:00.256Z,99650.82
2022-12-29T18:08:31.050Z,99654.40
2022-12-29T18:10:59.071Z,99658.55
2022-12-29T18:13:39.329Z,99654.79
2022-12-29T18:16:12.732Z,99651.38
2022-12-29T18:18:40.610Z,99666.83
2022-12-29T18:21:15.596Z,99664.23
2022-12-29T18:23:43.450Z,99664.59
2022-12-29T18:26:27.686Z,99660.84
2022-12-29T18:28:57.440Z,99655.59
2022-12-29T18:31:33.192Z,99661.14
2022-12-29T18:34:03.165Z,99654.20
2022-12-29T18:36:30.914Z,99658.80
2022-12-29T18:38:58.695Z,99660.64
2022-12-29T18:41:31.345Z,99662.52
2022-12-29T18:43:59.863Z,99662.92
2022-12-29T18:46:28.277Z,99667.35
2022-12-29T18:48:56.222Z,99661.31
2022-12-29T18:51:26.378Z,99665.79
2022-12-29T18:53:54.788Z,99664.55
2022-12-29T18:56:23.763Z,99664.79
2022-12-29T18:58:53.331Z,99657.16
2022-12-29T19:01:27.663Z,99658.50
2022-12-29T19:03:55.697Z,99661.47
2022-12-29T19:06:23.527Z,99663.34
2022-12-29T19:08:51.242Z,99665.02
2022-12-29T19:11:19.096Z,99659.44
2022-12-29T19:13:46.833Z,99661.27
2022-12-29T19:16:20.737Z,99663.60
2022-12-29T19:19:05.858Z,99660.34
2022-12-29T19:21:37.761Z,99661.39
2022-12-29T19:24:06.362Z,99654.05
2022-12-29T19:26:37.010Z,99655.80
2022-12-29T19:29:12.528Z,99658.08
2022-12-29T19:31:40.524Z,99659.04
2022-12-29T19:34:08.496Z,99659.64
2022-12-29T19:36:39.272Z,99659.98
2022-12-29T19:39:07.302Z,99654.82
2022-12-29T19:41:36.006Z,99660.40
2022-12-29T19:44:03.930Z,99661.66
2022-12-29T19:46:31.948Z,99660.31
2022-12-29T19:49:00.345Z,99660.64
2022-12-29T19:51:28.281Z,99652.51
2022-12-29T19:53:56.297Z,99654.42
2022-12-29T19:56:24.398Z,99652.64
2022-12-29T19:58:52.367Z,99655.51
2022-12-29T20:01:22.608Z,99655.45
2022-12-29T20:03:51.135Z,99654.20
2022-12-29T20:06:19.271Z,99662.61
2022-12-29T20:08:47.463Z,99662.83
2022-12-29T20:11:17.616Z,99667.40
2022-12-29T20:13:46.114Z,99671.23
2022-12-29T20:16:17.260Z,99674.15
2022-12-29T20:18:45.941Z,99678.91
2022-12-29T20:21:17.645Z,99678.33
2022-12-29T20:23:46.043Z,99679.36
2022-12-29T20:26:25.489Z,99682.63
2022-12-29T20:28:53.987Z,99686.39
2022-12-29T20:31:40.278Z,99697.74
2022-12-29T20:34:09.700Z,99690.36
2022-12-29T20:36:41.237Z,99698.61
2022-12-29T20:39:17.926Z,99695.80
2022-12-29T20:41:46.379Z,99703.05
2022-12-29T20:44:14.159Z,99704.94
2022-12-29T20:46:44.291Z,99705.11
2022-12-29T20:49:12.535Z,99700.68
2022-12-29T20:54:35.508Z,99708.41
2022-12-29T20:57:06.905Z,99709.92
2022-12-29T20:59:34.919Z,99701.17
2022-12-29T21:02:02.908Z,99702.25
2022-12-29T21:04:50.229Z,99699.00
2022-12-29T21:07:20.364Z,99695.13
2022-12-29T21:09:48.311Z,99698.80
2022-12-29T21:12:16.111Z,99706.88
2022-12-29T21:14:46.025Z,99706.27
2022-12-29T21:17:14.052Z,99709.71
2022-12-29T21:19:41.815Z,99708.65
2022-12-29T21:22:09.555Z,99706.48
2022-12-29T21:24:38.634Z,99696.70
2022-12-29T21:27:06.578Z,99701.73
2022-12-29T21:29:34.342Z,99705.23
2022-12-29T21:32:06.490Z,99704.17
2022-12-29T21:34:35.615Z,99699.03
2022-12-29T21:37:03.416Z,99703.52
2022-12-29T21:39:31.239Z,99704.73
2022-12-29T21:42:00.559Z,99715.86
2022-12-29T21:44:47.323Z,99724.65
2022-12-29T21:47:15.223Z,99724.83
2022-12-29T21:49:42.991Z,99717.58
2022-12-29T21:52:10.728Z,99710.89
2022-12-29T21:54:57.007Z,99711.21
2022-12-29T21:57:43.786Z,99704.52
2022-12-29T22:00:31.451Z,99702.70
2022-12-29T22:03:23.098Z,99699.75
2022-12-29T22:06:10.689Z,99703.29
2022-12-29T22:08:58.521Z,99701.66
2022-12-29T22:11:46.450Z,99691.80
2022-12-29T22:14:14.359Z,99692.67
2022-12-29T22:16:42.128Z,99678.48
2022-12-29T22:19:11.028Z,99679.05
2022-12-29T22:21:38.751Z,99684.47
2022-12-29T22:24:06.894Z,99689.13
2022-12-29T22:26:34.665Z,99688.27
2022-12-29T22:29:02.448Z,99689.23
2022-12-29T22:31:32.700Z,99689.27
2022-12-29T22:34:02.954Z,99685.56
2022-12-29T22:36:32.311Z,99692.58
2022-12-29T22:39:00.297Z,99694.40
2022-12-29T22:41:28.111Z,99691.73
2022-12-29T22:43:55.836Z,99688.13
2022-12-29T22:46:23.737Z,99683.08
2022-12-29T22:48:52.090Z,99682.61
2022-12-29T22:51:19.885Z,99690.02
2022-12-29T22:53:51.283Z,99689.73
2022-12-29T22:56:19.446Z,99687.27
2022-12-29T22:58:48.297Z,99677.58
2022-12-29T23:01:18.305Z,99676.59
2022-12-29T23:03:46.214Z,99679.19
2022-12-29T23:06:16.315Z,99684.54
2022-12-29T23:08:44.596Z,99682.05
2022-12-29T23:11:13.296Z,99681.70
2022-12-29T23:13:42.129Z,99683.09
2022-12-29T23:16:10.120Z,99687.94
2022-12-29T23:18:37.977Z,99683.02
2022-12-29T23:21:05.941Z,99686.59
2022-12-29T23:23:52.562Z,99688.98
2022-12-29T23:26:30.186Z,99685.84
2022-12-29T23:29:00.493Z,99685.57
2022-12-29T23:31:29.032Z,99688.15
2022-12-29T23:33:58.042Z,99696.94
2022-12-29T23:36:26.563Z,99697.73
2022-12-29T23:38:54.639Z,99697.13
2022-12-29T23:41:22.717Z,99696.17
2022-12-29T23:43:50.476Z,99702.56
2022-12-29T23:46:20.679Z,99712.58
2022-12-29T23:48:48.689Z,99722.30
2022-12-29T23:51:16.521Z,99728.01
2022-12-29T23:53:45.792Z,99728.95
2022-12-29T23:56:18.794Z,99730.23
2022-12-29T23:58:46.860Z,99721.95
